Time;durP1;ratioP1;P1;durP2;ratioP2;P2;SDS_P1;SDS_P2;PMS_P1;PMS_P2;Temp;Humidity;BMP_temperature;BMP_pressure;BME280_temperature;BME280_humidity;BME280_pressure;Samples;Min_cycle;Max_cycle;Signal;HPM_P1;HPM_P2
2022/12/18 00:01:02;;;;;;;55.00;40.95;;;-5.80;99.90;;;;;;2076542;28;20033;-69
2022/12/18 00:02:03;;;;;;;55.17;40.97;;;-5.80;99.90;;;;;;2073941;28;20108;-69
2022/12/18 00:03:03;;;;;;;56.85;42.13;;;-5.80;99.90;;;;;;2076534;28;20539;-69
2022/12/18 00:04:07;;;;;;;57.55;43.25;;;-5.80;99.90;;;;;;2075438;28;20041;-69
2022/12/18 00:05:08;;;;;;;59.25;43.58;;;-5.80;99.90;;;;;;2074927;28;20033;-69
2022/12/18 00:06:09;;;;;;;55.53;41.42;;;-5.80;99.90;;;;;;2075409;28;20594;-69
2022/12/18 00:07:09;;;;;;;56.22;44.65;;;-5.90;99.90;;;;;;2076509;28;20022;-69
2022/12/18 00:08:10;;;;;;;63.85;45.45;;;-5.80;99.90;;;;;;2075453;28;20018;-69
2022/12/18 00:09:10;;;;;;;58.33;42.70;;;-5.80;99.90;;;;;;2076660;28;20029;-69
2022/12/18 00:10:11;;;;;;;58.10;43.40;;;-5.80;99.90;;;;;;2075436;28;20029;-69
2022/12/18 00:11:17;;;;;;;53.33;39.22;;;-5.90;99.90;;;;;;2075400;28;20029;-69
2022/12/18 00:12:18;;;;;;;54.92;41.90;;;-5.80;99.90;;;;;;2075994;28;20053;-69
2022/12/18 00:13:18;;;;;;;56.45;43.38;;;-5.80;99.90;;;;;;2074531;28;20034;-69
2022/12/18 00:14:19;;;;;;;58.85;45.13;;;-5.90;99.90;;;;;;2077704;28;20025;-69
2022/12/18 00:15:20;;;;;;;60.45;46.13;;;-5.80;99.90;;;;;;2074351;28;20136;-69
2022/12/18 00:16:22;;;;;;;60.50;43.88;;;-5.90;99.90;;;;;;2075832;28;20067;-69
2022/12/18 00:17:22;;;;;;;58.53;44.08;;;-5.90;99.90;;;;;;2076422;28;20084;-69
2022/12/18 00:18:23;;;;;;;54.30;41.05;;;-5.90;99.90;;;;;;2076263;28;20021;-69
2022/12/18 00:19:23;;;;;;;54.88;42.03;;;-5.90;99.90;;;;;;2076610;28;20029;-69
2022/12/18 00:20:25;;;;;;;57.40;43.45;;;-5.90;99.90;;;;;;2075912;28;20109;-69
2022/12/18 00:21:27;;;;;;;56.20;43.17;;;-5.90;99.90;;;;;;2076038;28;20482;-69
2022/12/18 00:22:28;;;;;;;54.28;41.88;;;-5.90;99.90;;;;;;2075166;28;20038;-69
2022/12/18 00:23:30;;;;;;;55.25;42.22;;;-5.90;99.90;;;;;;2077232;28;20039;-69
2022/12/18 00:24:30;;;;;;;52.55;41.30;;;-5.90;99.90;;;;;;2076013;28;20030;-69
2022/12/18 00:25:34;;;;;;;54.78;40.78;;;-5.90;99.90;;;;;;2075962;28;20049;-69
2022/12/18 00:26:37;;;;;;;56.78;40.70;;;-5.90;99.90;;;;;;2076412;28;20056;-69
2022/12/18 00:27:37;;;;;;;53.38;41.33;;;-5.90;99.90;;;;;;2076031;28;20107;-69
2022/12/18 00:28:38;;;;;;;57.88;42.25;;;-5.90;99.90;;;;;;2076467;28;20022;-69
2022/12/18 00:29:39;;;;;;;54.55;38.88;;;-5.90;99.90;;;;;;2075963;28;20041;-69
2022/12/18 00:30:40;;;;;;;52.47;40.13;;;-5.90;99.90;;;;;;2077357;28;20486;-69
2022/12/18 00:31:42;;;;;;;52.55;39.97;;;-5.90;99.90;;;;;;2078079;28;20325;-69
2022/12/18 00:32:42;;;;;;;53.15;39.75;;;-5.90;99.90;;;;;;2076572;28;20073;-69
2022/12/18 00:33:43;;;;;;;54.20;39.40;;;-6.00;99.90;;;;;;2078829;28;20030;-69
2022/12/18 00:34:44;;;;;;;54.72;41.05;;;-6.00;99.90;;;;;;2075441;28;20021;-69
2022/12/18 00:35:44;;;;;;;51.78;39.67;;;-6.00;99.90;;;;;;2076663;28;20059;-69
2022/12/18 00:36:47;;;;;;;53.38;39.58;;;-6.00;99.90;;;;;;2075781;28;20032;-69
2022/12/18 00:37:48;;;;;;;52.78;40.58;;;-6.00;99.90;;;;;;2076252;28;20543;-69
2022/12/18 00:38:49;;;;;;;58.83;42.47;;;-6.00;99.90;;;;;;2075495;28;20507;-69
2022/12/18 00:39:49;;;;;;;55.75;41.55;;;-6.00;99.90;;;;;;2075236;28;20037;-69
2022/12/18 00:40:50;;;;;;;59.55;41.67;;;-6.00;99.90;;;;;;2076671;28;20017;-69
2022/12/18 00:43:09;;;;;;;51.42;39.00;;;-6.00;99.90;;;;;;2076126;28;20037;-69
2022/12/18 00:44:13;;;;;;;51.45;40.50;;;-6.00;99.90;;;;;;2076555;28;20144;-69
2022/12/18 00:45:13;;;;;;;51.90;39.42;;;-6.00;99.90;;;;;;2082776;28;20143;-69
2022/12/18 00:46:14;;;;;;;53.08;39.22;;;-6.00;99.90;;;;;;2072998;28;20025;-69
2022/12/18 00:47:14;;;;;;;49.55;38.08;;;-6.10;99.90;;;;;;2076185;28;20033;-69
2022/12/18 00:48:15;;;;;;;49.75;37.50;;;-6.10;99.90;;;;;;2075159;28;20116;-69
2022/12/18 00:49:17;;;;;;;52.83;38.63;;;-6.10;99.90;;;;;;2084136;28;20031;-69
2022/12/18 00:50:18;;;;;;;54.03;40.30;;;-6.10;99.90;;;;;;2082822;28;20697;-69
2022/12/18 00:51:19;;;;;;;51.90;38.22;;;-6.10;99.90;;;;;;2075602;28;20294;-69
2022/12/18 00:52:19;;;;;;;52.15;38.72;;;-6.10;99.90;;;;;;2076027;28;20029;-69
2022/12/18 00:53:20;;;;;;;49.55;36.97;;;-6.10;99.90;;;;;;2076971;28;20496;-70
2022/12/18 00:54:21;;;;;;;49.80;36.15;;;-6.10;99.90;;;;;;2076409;28;20029;-70
2022/12/18 00:55:21;;;;;;;45.60;34.60;;;-6.10;99.90;;;;;;2076666;28;20400;-71
2022/12/18 00:56:22;;;;;;;50.03;35.45;;;-6.10;99.90;;;;;;2077355;28;20060;-71
2022/12/18 00:57:23;;;;;;;49.28;38.20;;;-6.10;99.90;;;;;;2075940;28;20498;-71
2022/12/18 00:58:23;;;;;;;49.50;36.33;;;-6.10;99.90;;;;;;2077766;28;20387;-70
2022/12/18 00:59:24;;;;;;;52.22;38.08;;;-6.10;99.90;;;;;;2074947;28;20028;-70
2022/12/18 01:00:24;;;;;;;49.15;36.10;;;-6.10;99.90;;;;;;2075339;28;20025;-70
2022/12/18 01:01:25;;;;;;;47.55;35.97;;;-6.10;99.90;;;;;;2078215;28;20029;-70
2022/12/18 01:02:25;;;;;;;50.30;37.00;;;-6.10;99.90;;;;;;2074820;28;20038;-70
2022/12/18 01:03:26;;;;;;;50.83;37.38;;;-6.10;99.90;;;;;;2075991;28;20023;-70
2022/12/18 01:04:26;;;;;;;47.90;36.13;;;-6.10;99.90;;;;;;2082490;28;21584;-70
2022/12/18 01:05:27;;;;;;;47.67;36.58;;;-6.10;99.90;;;;;;2080560;28;20068;-70
2022/12/18 01:06:31;;;;;;;46.42;35.35;;;-6.20;99.90;;;;;;2076802;28;20076;-71
2022/12/18 01:07:31;;;;;;;42.63;33.83;;;-6.10;99.90;;;;;;2074803;28;20037;-71
2022/12/18 01:08:32;;;;;;;48.95;35.45;;;-6.20;99.90;;;;;;2074895;28;20024;-70
2022/12/18 01:09:32;;;;;;;49.10;34.65;;;-6.10;99.90;;;;;;2076302;28;20480;-70
2022/12/18 01:10:33;;;;;;;47.47;34.85;;;-6.10;99.90;;;;;;2075783;28;20486;-70
2022/12/18 01:11:34;;;;;;;44.50;34.45;;;-6.10;99.90;;;;;;2075131;28;20017;-70
2022/12/18 01:12:35;;;;;;;49.63;36.95;;;-6.20;99.90;;;;;;2076155;28;20053;-70
2022/12/18 01:13:35;;;;;;;46.47;35.30;;;-6.10;99.90;;;;;;2075173;28;20040;-70
2022/12/18 01:14:37;;;;;;;45.17;33.40;;;-6.10;99.90;;;;;;2076378;28;20478;-70
2022/12/18 01:15:38;;;;;;;44.15;33.45;;;-6.20;99.90;;;;;;2075711;28;20632;-71
2022/12/18 01:16:38;;;;;;;44.33;33.78;;;-6.20;99.90;;;;;;2076070;28;20029;-70
2022/12/18 01:17:39;;;;;;;47.08;33.78;;;-6.10;99.90;;;;;;2076562;28;20061;-70
2022/12/18 01:18:40;;;;;;;41.90;32.72;;;-6.20;99.90;;;;;;2074415;28;20464;-70
2022/12/18 01:19:40;;;;;;;47.63;33.80;;;-6.20;99.90;;;;;;2075164;28;20052;-70
2022/12/18 01:20:41;;;;;;;48.67;33.22;;;-6.20;99.90;;;;;;2076309;28;20079;-70
2022/12/18 01:21:41;;;;;;;44.30;33.10;;;-6.20;99.90;;;;;;2075161;28;20029;-70
2022/12/18 01:22:42;;;;;;;41.83;32.78;;;-6.20;99.90;;;;;;2076183;28;20104;-70
2022/12/18 01:23:43;;;;;;;39.63;31.15;;;-6.20;99.90;;;;;;2076048;28;20795;-70
2022/12/18 01:24:43;;;;;;;43.20;32.53;;;-6.20;99.90;;;;;;2073489;28;20125;-70
2022/12/18 01:25:44;;;;;;;42.75;31.20;;;-6.20;99.90;;;;;;2075817;28;21606;-70
2022/12/18 01:26:44;;;;;;;44.20;33.17;;;-6.20;99.90;;;;;;2076272;28;20136;-70
2022/12/18 01:27:45;;;;;;;43.03;33.20;;;-6.20;99.90;;;;;;2076545;28;20021;-70
2022/12/18 01:28:45;;;;;;;40.03;32.30;;;-6.20;99.90;;;;;;2074524;28;20022;-70
2022/12/18 01:29:47;;;;;;;41.97;32.22;;;-6.20;99.90;;;;;;2076363;28;20030;-70
2022/12/18 01:30:47;;;;;;;42.95;31.92;;;-6.20;99.90;;;;;;2075987;28;20049;-70
2022/12/18 01:31:48;;;;;;;43.60;32.85;;;-6.20;99.90;;;;;;2075932;28;20045;-70
2022/12/18 01:32:48;;;;;;;42.88;31.92;;;-6.20;99.90;;;;;;2074602;28;20516;-70
2022/12/18 01:33:50;;;;;;;42.30;32.17;;;-6.20;99.90;;;;;;2076011;28;20033;-70
2022/12/18 01:34:50;;;;;;;43.95;31.25;;;-6.20;99.90;;;;;;2074212;28;20149;-71
2022/12/18 01:35:51;;;;;;;40.30;30.42;;;-6.20;99.90;;;;;;2074862;28;20056;-70
2022/12/18 01:36:52;;;;;;;42.95;31.08;;;-6.20;99.90;;;;;;2075635;28;20614;-70
2022/12/18 01:37:55;;;;;;;42.17;31.05;;;-6.30;99.90;;;;;;2076090;28;20128;-70
2022/12/18 01:38:58;;;;;;;42.97;31.85;;;-6.20;99.90;;;;;;2077600;28;20036;-70
2022/12/18 01:39:59;;;;;;;38.65;29.23;;;-6.30;99.90;;;;;;2075929;28;20021;-70
2022/12/18 01:41:01;;;;;;;41.85;30.90;;;-6.30;99.90;;;;;;2078546;28;20108;-70
2022/12/18 01:42:12;;;;;;;38.13;29.27;;;-6.30;99.90;;;;;;2077063;28;20074;-70
2022/12/18 01:43:12;;;;;;;39.25;29.00;;;-6.30;99.90;;;;;;2076767;28;20025;-70
2022/12/18 01:44:50;;;;;;;39.35;30.02;;;-6.30;99.90;;;;;;2076109;28;20025;-70
2022/12/18 01:45:51;;;;;;;38.53;28.85;;;-6.30;99.90;;;;;;2076588;28;20067;-70
2022/12/18 01:46:51;;;;;;;35.88;28.20;;;-6.30;99.90;;;;;;2076201;28;20037;-70
2022/12/18 01:48:01;;;;;;;39.75;29.60;;;-6.30;99.90;;;;;;2077488;28;20108;-70
2022/12/18 01:49:02;;;;;;;36.72;28.83;;;-6.30;99.90;;;;;;2077674;28;20029;-70
2022/12/18 01:50:12;;;;;;;34.22;26.73;;;-6.30;99.90;;;;;;2076294;28;20060;-70
2022/12/18 01:51:12;;;;;;;;;;;-6.30;99.90;;;;;;2075764;28;20033;-70
2022/12/18 01:52:14;;;;;;;36.90;27.17;;;-6.40;99.90;;;;;;2075926;28;20444;-70
2022/12/18 01:53:18;;;;;;;39.42;29.20;;;-6.40;99.90;;;;;;2077453;28;20029;-70
2022/12/18 01:54:19;;;;;;;37.42;27.83;;;-6.40;99.90;;;;;;2077000;28;20025;-70
2022/12/18 01:55:24;;;;;;;36.42;27.42;;;-6.40;99.90;;;;;;2078589;28;20039;-70
2022/12/18 01:56:25;;;;;;;37.15;29.58;;;-6.40;99.90;;;;;;2076251;28;20116;-70
2022/12/18 01:57:26;;;;;;;38.85;29.77;;;-6.40;99.90;;;;;;2078911;28;20037;-70
2022/12/18 01:58:36;;;;;;;38.00;27.83;;;-6.40;99.90;;;;;;2078210;28;20025;-70
2022/12/18 01:59:40;;;;;;;36.95;27.88;;;-6.30;99.90;;;;;;2077192;28;20038;-70
2022/12/18 02:00:41;;;;;;;35.88;27.17;;;-6.30;99.90;;;;;;2076371;28;20524;-71
2022/12/18 02:01:42;;;;;;;36.72;28.05;;;-6.40;99.90;;;;;;2076621;28;20577;-70
2022/12/18 02:02:44;;;;;;;33.97;26.73;;;-6.30;99.90;;;;;;2076397;28;20036;-70
2022/12/18 02:03:44;;;;;;;38.63;28.17;;;-6.30;99.90;;;;;;2079058;28;20030;-70
2022/12/18 02:04:45;;;;;;;36.65;27.55;;;-6.40;99.90;;;;;;2073776;28;20073;-70
2022/12/18 02:06:05;;;;;;;34.22;26.63;;;-6.40;99.90;;;;;;2077066;28;20041;-70
2022/12/18 02:07:14;;;;;;;37.50;27.50;;;-6.40;99.90;;;;;;2078469;28;20038;-70
2022/12/18 02:08:17;;;;;;;32.72;25.50;;;-6.40;99.90;;;;;;2077418;28;20160;-70
2022/12/18 02:09:24;;;;;;;35.47;27.63;;;-6.50;99.90;;;;;;2083849;28;20025;-70
2022/12/18 02:10:31;;;;;;;37.15;26.95;;;-6.50;99.90;;;;;;2083354;28;20033;-71
2022/12/18 02:12:16;;;;;;;35.30;27.27;;;-6.50;99.90;;;;;;2074985;28;20512;-70
2022/12/18 02:13:29;;;;;;;34.17;25.90;;;-6.50;99.90;;;;;;2074800;28;20045;-70
2022/12/18 02:14:44;;;;;;;33.20;25.77;;;-6.50;99.90;;;;;;2076746;28;20357;-70
2022/12/18 02:15:52;;;;;;;33.55;25.42;;;-6.50;99.90;;;;;;2076646;28;20057;-70
2022/12/18 02:17:03;;;;;;;37.00;25.60;;;-6.50;99.90;;;;;;2077793;28;20473;-70
2022/12/18 02:18:24;;;;;;;35.67;26.70;;;-6.50;99.90;;;;;;2077781;28;20061;-70
2022/12/18 02:19:47;;;;;;;30.70;23.80;;;-6.50;99.90;;;;;;2077911;28;20377;-70
2022/12/18 02:21:16;;;;;;;31.27;23.42;;;-6.50;99.90;;;;;;2076140;28;20533;-70
2022/12/18 02:22:30;;;;;;;32.60;24.45;;;-6.50;99.90;;;;;;2073373;28;20033;-70
2022/12/18 02:23:37;;;;;;;32.35;24.27;;;-6.60;99.90;;;;;;2077152;28;20022;-70
2022/12/18 02:24:59;;;;;;;33.85;24.67;;;-6.50;99.90;;;;;;2077105;28;20048;-70
2022/12/18 02:26:06;;;;;;;31.67;24.00;;;-6.50;99.90;;;;;;2078842;28;20033;-70
2022/12/18 02:27:09;;;;;;;32.10;24.33;;;-6.60;99.90;;;;;;2077179;28;20512;-70
2022/12/18 02:28:13;;;;;;;33.75;25.10;;;-6.50;99.90;;;;;;2074721;28;20038;-70
2022/12/18 02:29:21;;;;;;;32.00;23.58;;;-6.50;99.90;;;;;;2076820;28;20052;-70
2022/12/18 02:30:22;;;;;;;30.35;23.63;;;-6.50;99.90;;;;;;2077328;28;20021;-70
2022/12/18 02:31:27;;;;;;;31.33;23.23;;;-6.50;99.90;;;;;;2076784;28;20022;-70
2022/12/18 02:32:32;;;;;;;29.90;23.30;;;-6.50;99.90;;;;;;2076992;28;20850;-70
2022/12/18 02:33:34;;;;;;;30.35;23.42;;;-6.50;99.90;;;;;;2077553;28;20096;-70
2022/12/18 02:34:38;;;;;;;29.10;23.23;;;-6.50;99.90;;;;;;2076857;28;20021;-70
2022/12/18 02:35:41;;;;;;;31.17;24.15;;;-6.50;99.90;;;;;;2077485;28;20033;-70
2022/12/18 02:36:44;;;;;;;33.20;24.38;;;-6.50;99.90;;;;;;2076872;28;20112;-70
2022/12/18 02:37:47;;;;;;;30.85;22.48;;;-6.50;99.90;;;;;;2078154;28;20034;-70
2022/12/18 02:38:48;;;;;;;30.38;24.08;;;-6.50;99.90;;;;;;2078115;28;20025;-69
2022/12/18 02:39:52;;;;;;;30.55;23.17;;;-6.50;99.90;;;;;;2075417;28;20487;-70
2022/12/18 02:40:54;;;;;;;30.15;22.77;;;-6.50;99.90;;;;;;2076017;28;20037;-70
2022/12/18 02:41:56;;;;;;;31.08;23.05;;;-6.50;99.90;;;;;;2076178;28;20026;-70
2022/12/18 02:43:14;;;;;;;32.28;24.42;;;-6.50;99.90;;;;;;2076553;28;20033;-70
2022/12/18 02:44:14;;;;;;;29.05;21.77;;;-6.50;99.90;;;;;;2075520;28;20029;-70
2022/12/18 02:45:15;;;;;;;28.25;23.00;;;-6.50;99.90;;;;;;2076762;28;20025;-70
2022/12/18 02:46:36;;;;;;;31.20;23.20;;;-6.50;99.90;;;;;;2077074;28;20045;-70
2022/12/18 02:47:40;;;;;;;31.75;22.10;;;-6.50;99.90;;;;;;2076673;28;20079;-70
2022/12/18 02:48:40;;;;;;;31.30;23.90;;;-6.60;99.90;;;;;;2077112;28;20116;-70
2022/12/18 02:50:03;;;;;;;30.77;23.25;;;-6.50;99.90;;;;;;2077184;28;20030;-70
2022/12/18 02:51:21;;;;;;;29.65;22.30;;;-6.60;99.90;;;;;;2076218;28;20030;-70
2022/12/18 02:52:41;;;;;;;30.17;22.50;;;-6.60;99.90;;;;;;2074573;28;20083;-70
2022/12/18 02:54:03;;;;;;;31.98;22.55;;;-6.60;99.90;;;;;;2076429;28;20017;-70
2022/12/18 02:55:28;;;;;;;29.23;20.95;;;-6.60;99.90;;;;;;2076029;28;20774;-70
2022/12/18 02:56:53;;;;;;;27.15;20.52;;;-6.60;99.90;;;;;;2077956;28;20038;-70
2022/12/18 02:58:20;;;;;;;27.38;21.75;;;-6.60;99.90;;;;;;2075972;28;20681;-70
2022/12/18 02:59:39;;;;;;;27.23;21.05;;;-6.60;99.90;;;;;;2057322;28;20066;-70
2022/12/18 03:00:58;;;;;;;32.30;22.60;;;-6.60;99.90;;;;;;2077886;28;20053;-70
2022/12/18 03:02:05;;;;;;;27.27;21.58;;;-6.70;99.90;;;;;;2078489;28;20546;-70
2022/12/18 03:03:29;;;;;;;29.65;22.00;;;-6.70;99.90;;;;;;2076266;28;20037;-70
2022/12/18 03:04:40;;;;;;;29.67;21.88;;;-6.70;99.90;;;;;;2076257;28;20018;-70
2022/12/18 03:06:14;;;;;;;28.73;21.70;;;-6.70;99.90;;;;;;2077453;28;20025;-70
2022/12/18 03:07:20;;;;;;;30.50;21.77;;;-6.60;99.90;;;;;;2067872;28;20103;-70
2022/12/18 03:08:23;;;;;;;31.38;21.83;;;-6.70;99.90;;;;;;2074035;28;20096;-70
2022/12/18 03:09:41;;;;;;;28.95;21.40;;;-6.70;99.90;;;;;;2076058;28;20075;-70
2022/12/18 03:10:50;;;;;;;27.42;21.80;;;-6.60;99.90;;;;;;2077195;28;20504;-70
2022/12/18 03:13:30;;;;;;;28.80;21.55;;;-6.60;99.90;;;;;;2074608;28;20589;-70
2022/12/18 03:14:33;;;;;;;27.98;20.33;;;-6.70;99.90;;;;;;2077609;28;20010;-70
2022/12/18 03:15:38;;;;;;;25.75;20.52;;;-6.70;99.90;;;;;;2077727;28;20055;-70
2022/12/18 03:16:40;;;;;;;28.52;21.35;;;-6.60;99.90;;;;;;2077606;28;20027;-70
2022/12/18 03:17:52;;;;;;;28.60;21.85;;;-6.60;99.90;;;;;;2075848;28;20029;-70
2022/12/18 03:18:58;;;;;;;40.30;31.15;;;-6.60;99.90;;;;;;2076469;28;20025;-70
2022/12/18 03:20:05;;;;;;;32.55;24.80;;;-6.60;99.90;;;;;;2074734;28;20034;-70
2022/12/18 03:21:07;;;;;;;36.00;25.73;;;-6.60;99.90;;;;;;2077075;28;20025;-70
2022/12/18 03:22:10;;;;;;;31.58;24.17;;;-6.60;99.90;;;;;;2074870;28;20032;-70
2022/12/18 03:23:15;;;;;;;35.40;25.77;;;-6.60;99.90;;;;;;2076858;28;20088;-70
2022/12/18 03:24:18;;;;;;;31.67;25.70;;;-6.60;99.90;;;;;;2074101;28;20033;-70
2022/12/18 03:25:19;;;;;;;32.85;24.77;;;-6.60;99.90;;;;;;2075682;28;20018;-70
2022/12/18 03:26:24;;;;;;;36.40;26.13;;;-6.60;99.90;;;;;;2076635;28;20076;-70
2022/12/18 03:27:27;;;;;;;34.25;26.13;;;-6.60;99.90;;;;;;2077077;28;20097;-70
2022/12/18 03:28:31;;;;;;;36.42;25.88;;;-6.60;99.90;;;;;;2075815;28;20033;-70
2022/12/18 03:29:41;;;;;;;31.60;24.77;;;-6.50;99.90;;;;;;2068823;28;20029;-70
2022/12/18 03:30:45;;;;;;;34.42;26.73;;;-6.60;99.90;;;;;;2076207;28;20585;-70
2022/12/18 03:31:53;;;;;;;35.30;26.88;;;-6.60;99.90;;;;;;2075990;28;20482;-70
2022/12/18 03:33:01;;;;;;;39.67;28.85;;;-6.60;99.90;;;;;;2074933;28;20072;-70
2022/12/18 03:34:08;;;;;;;41.78;29.27;;;-6.60;99.90;;;;;;2076459;28;20014;-70
2022/12/18 03:35:13;;;;;;;44.80;33.28;;;-6.60;99.90;;;;;;2075362;28;20112;-70
2022/12/18 03:36:14;;;;;;;46.05;32.30;;;-6.60;99.90;;;;;;2083517;28;20017;-70
2022/12/18 03:37:15;;;;;;;38.00;29.10;;;-6.60;99.90;;;;;;2083926;28;20030;-70
2022/12/18 03:38:15;;;;;;;39.83;29.63;;;-6.60;99.90;;;;;;2073935;28;20049;-70
2022/12/18 03:39:16;;;;;;;43.55;32.03;;;-6.60;99.90;;;;;;2076503;28;20076;-70
2022/12/18 03:40:17;;;;;;;43.15;31.55;;;-6.60;99.90;;;;;;2078169;28;20037;-70
2022/12/18 03:41:33;;;;;;;46.80;32.08;;;-6.60;99.90;;;;;;2076325;28;20049;-70
2022/12/18 03:42:51;;;;;;;46.78;34.60;;;-6.60;99.90;;;;;;2076261;28;20035;-70
2022/12/18 03:44:14;;;;;;;45.67;33.60;;;-6.60;99.90;;;;;;2078039;28;20464;-70
2022/12/18 03:45:46;;;;;;;44.35;31.60;;;-6.70;99.90;;;;;;2076287;28;20523;-70
2022/12/18 03:47:15;;;;;;;47.55;33.78;;;-6.60;99.90;;;;;;2076568;28;20547;-70
2022/12/18 03:48:58;;;;;;;46.95;35.03;;;-6.60;99.90;;;;;;2076869;28;20401;-70
2022/12/18 03:50:22;;;;;;;49.55;34.92;;;-6.70;99.90;;;;;;2060996;28;20603;-70
2022/12/18 03:51:47;;;;;;;50.30;36.38;;;-6.70;99.90;;;;;;2057581;28;20038;-70
2022/12/18 03:53:08;;;;;;;51.83;36.95;;;-6.70;99.90;;;;;;2060535;28;20681;-70
2022/12/18 03:54:10;;;;;;;45.22;34.90;;;-6.80;99.90;;;;;;2021616;29;20052;-70
2022/12/18 03:55:11;;;;;;;44.42;32.20;;;-6.70;99.90;;;;;;2053012;28;20050;-70
2022/12/18 03:56:15;;;;;;;52.95;38.13;;;-6.70;99.90;;;;;;2076356;28;20535;-70
2022/12/18 03:57:20;;;;;;;49.70;36.15;;;-6.70;99.90;;;;;;2075795;28;20033;-70
2022/12/18 03:58:24;;;;;;;51.17;37.15;;;-6.70;99.90;;;;;;2075937;28;20436;-70
2022/12/18 03:59:26;;;;;;;47.75;35.10;;;-6.70;99.90;;;;;;2077096;28;20026;-70
2022/12/18 04:00:29;;;;;;;48.78;36.55;;;-6.70;99.90;;;;;;2074906;28;20457;-70
2022/12/18 04:01:35;;;;;;;47.05;35.25;;;-6.70;99.90;;;;;;2075156;28;20021;-70
2022/12/18 04:02:40;;;;;;;45.80;34.22;;;-6.70;99.90;;;;;;2067075;28;20697;-70
2022/12/18 04:03:42;;;;;;;45.75;34.40;;;-6.70;99.90;;;;;;2077542;28;20025;-70
2022/12/18 04:04:46;;;;;;;45.08;33.10;;;-6.70;99.90;;;;;;2076730;28;20606;-70
2022/12/18 04:05:50;;;;;;;49.55;34.80;;;-6.70;99.90;;;;;;2074413;28;20022;-70
2022/12/18 04:06:51;;;;;;;45.83;34.05;;;-6.70;99.90;;;;;;2076608;28;20030;-70
2022/12/18 04:07:54;;;;;;;47.95;34.15;;;-6.70;99.90;;;;;;2075528;28;20029;-70
2022/12/18 04:08:56;;;;;;;45.97;36.28;;;-6.70;99.90;;;;;;2074719;28;20033;-70
2022/12/18 04:09:59;;;;;;;46.38;33.85;;;-6.70;99.90;;;;;;2075717;28;20131;-70
2022/12/18 04:11:01;;;;;;;43.50;33.53;;;-6.70;99.90;;;;;;2075967;28;20069;-70
2022/12/18 04:12:01;;;;;;;50.83;36.65;;;-6.70;99.90;;;;;;2075167;28;20025;-70
2022/12/18 04:13:02;;;;;;;50.63;36.95;;;-6.70;99.90;;;;;;2075169;28;20029;-70
2022/12/18 04:14:04;;;;;;;49.97;36.78;;;-6.70;99.90;;;;;;2074725;28;20558;-70
2022/12/18 04:15:05;;;;;;;47.78;35.72;;;-6.70;99.90;;;;;;2074478;28;20179;-70
2022/12/18 04:16:06;;;;;;;48.58;36.55;;;-6.70;99.90;;;;;;2076015;28;20030;-70
2022/12/18 04:17:07;;;;;;;50.30;36.70;;;-6.70;99.90;;;;;;2075475;28;20152;-70
2022/12/18 04:18:07;;;;;;;53.38;37.58;;;-6.70;99.90;;;;;;2075841;28;20560;-70
2022/12/18 04:19:08;;;;;;;52.42;38.22;;;-6.70;99.90;;;;;;2075293;28;20044;-70
2022/12/18 04:20:09;;;;;;;49.20;35.15;;;-6.70;99.90;;;;;;2076632;28;20030;-70
2022/12/18 04:21:10;;;;;;;53.47;38.92;;;-6.70;99.90;;;;;;2075852;28;20068;-70
2022/12/18 04:22:10;;;;;;;52.88;37.88;;;-6.70;99.90;;;;;;2075431;28;20029;-70
2022/12/18 04:23:11;;;;;;;51.03;37.50;;;-6.70;99.90;;;;;;2075559;28;20037;-70
2022/12/18 04:24:11;;;;;;;54.55;39.20;;;-6.70;99.90;;;;;;2077209;28;20025;-70
2022/12/18 04:25:12;;;;;;;45.92;34.78;;;-6.80;99.90;;;;;;2076632;28;20108;-70
2022/12/18 04:26:13;;;;;;;46.67;36.05;;;-6.70;99.90;;;;;;2075625;28;20026;-70
2022/12/18 04:27:14;;;;;;;48.65;37.22;;;-6.70;99.90;;;;;;2075992;28;20036;-70
2022/12/18 04:28:14;;;;;;;47.88;37.03;;;-6.70;99.90;;;;;;2076317;28;20135;-70
2022/12/18 04:29:15;;;;;;;47.17;35.97;;;-6.80;99.90;;;;;;2076502;28;20017;-70
2022/12/18 04:30:15;;;;;;;53.80;39.75;;;-6.70;99.90;;;;;;2074699;28;20060;-70
2022/12/18 04:31:16;;;;;;;49.67;36.53;;;-6.70;99.90;;;;;;2076276;28;20030;-70
2022/12/18 04:32:16;;;;;;;51.90;39.42;;;-6.70;99.90;;;;;;2076490;28;20025;-70
2022/12/18 04:33:17;;;;;;;48.47;37.63;;;-6.80;99.90;;;;;;2074787;28;20026;-70
2022/12/18 04:34:18;;;;;;;49.38;35.45;;;-6.80;99.90;;;;;;2074920;28;20030;-70
2022/12/18 04:35:18;;;;;;;48.72;35.55;;;-6.80;99.90;;;;;;2074210;28;20032;-70
2022/12/18 04:36:19;;;;;;;52.33;38.65;;;-6.80;99.90;;;;;;2076390;28;20044;-70
2022/12/18 04:37:19;;;;;;;51.83;38.35;;;-6.70;99.90;;;;;;2074701;28;20535;-70
2022/12/18 04:38:20;;;;;;;55.47;39.40;;;-6.80;99.90;;;;;;2077527;28;20078;-70
2022/12/18 04:39:20;;;;;;;49.17;37.65;;;-6.70;99.90;;;;;;2075045;28;20025;-70
2022/12/18 04:40:21;;;;;;;52.10;39.75;;;-6.70;99.90;;;;;;2076677;28;20057;-70
2022/12/18 04:41:22;;;;;;;52.15;38.00;;;-6.70;99.90;;;;;;2075473;28;20016;-70
2022/12/18 04:42:22;;;;;;;49.55;37.92;;;-6.80;99.90;;;;;;2075276;28;20402;-70
2022/12/18 04:43:23;;;;;;;49.88;38.22;;;-6.80;99.90;;;;;;2083802;28;20071;-70
2022/12/18 04:44:23;;;;;;;53.88;38.00;;;-6.80;99.90;;;;;;2082303;28;20175;-70
2022/12/18 04:45:24;;;;;;;53.17;37.28;;;-6.80;99.90;;;;;;2074938;28;20135;-70
2022/12/18 04:46:24;;;;;;;49.20;36.75;;;-6.80;99.90;;;;;;2073626;28;20044;-70
2022/12/18 04:47:25;;;;;;;52.17;37.88;;;-6.80;99.90;;;;;;2074585;28;20140;-70
2022/12/18 04:48:25;;;;;;;50.53;37.88;;;-6.80;99.90;;;;;;2076470;28;20021;-70
2022/12/18 04:49:26;;;;;;;46.92;35.03;;;-6.80;99.90;;;;;;2075770;28;20025;-70
2022/12/18 04:50:27;;;;;;;48.38;37.75;;;-6.80;99.90;;;;;;2075161;28;20105;-70
2022/12/18 04:51:27;;;;;;;51.38;37.15;;;-6.80;99.90;;;;;;2076219;28;20018;-70
2022/12/18 04:52:28;;;;;;;50.22;38.05;;;-6.80;99.90;;;;;;2074706;28;20101;-70
2022/12/18 04:53:29;;;;;;;53.25;40.38;;;-6.80;99.90;;;;;;2077239;28;20420;-70
2022/12/18 04:54:29;;;;;;;50.25;38.40;;;-6.80;99.90;;;;;;2076613;28;20501;-70
2022/12/18 04:55:30;;;;;;;50.00;36.08;;;-6.80;99.90;;;;;;2076937;28;20105;-70
2022/12/18 04:56:31;;;;;;;54.80;39.00;;;-6.80;99.90;;;;;;2075685;28;20026;-70
2022/12/18 04:57:32;;;;;;;49.13;36.92;;;-6.80;99.90;;;;;;2073540;28;20029;-70
2022/12/18 04:58:33;;;;;;;47.38;37.03;;;-6.80;99.90;;;;;;2076352;28;20025;-70
2022/12/18 04:59:33;;;;;;;50.08;37.13;;;-6.80;99.90;;;;;;2073500;28;20032;-70
2022/12/18 05:00:34;;;;;;;48.10;36.53;;;-6.80;99.90;;;;;;2075880;28;20083;-70
2022/12/18 05:01:34;;;;;;;47.45;35.78;;;-6.80;99.90;;;;;;2084881;28;20036;-70
2022/12/18 05:02:35;;;;;;;52.25;38.65;;;-6.80;99.90;;;;;;2082484;28;20026;-70
2022/12/18 05:03:36;;;;;;;50.38;35.95;;;-6.80;99.90;;;;;;2066999;28;20023;-70
2022/12/18 05:04:37;;;;;;;52.78;38.58;;;-6.80;99.90;;;;;;2074632;28;20018;-70
2022/12/18 05:05:37;;;;;;;51.70;37.08;;;-6.80;99.90;;;;;;2076309;28;20025;-70
2022/12/18 05:06:38;;;;;;;50.25;36.60;;;-6.80;99.90;;;;;;2077192;28;20076;-70
2022/12/18 05:07:38;;;;;;;50.35;36.20;;;-6.80;99.90;;;;;;2074661;28;20110;-70
2022/12/18 05:08:39;;;;;;;49.35;36.90;;;-6.80;99.90;;;;;;2075031;28;20516;-70
2022/12/18 05:09:39;;;;;;;50.17;35.63;;;-6.80;99.90;;;;;;2076147;28;20493;-70
2022/12/18 05:10:40;;;;;;;49.53;36.30;;;-6.80;99.90;;;;;;2074834;28;20032;-70
2022/12/18 05:11:40;;;;;;;49.35;35.55;;;-6.90;99.90;;;;;;2076660;28;20018;-70
2022/12/18 05:12:57;;;;;;;49.03;36.15;;;-6.80;99.90;;;;;;2075412;28;20040;-70
2022/12/18 05:13:58;;;;;;;49.33;36.42;;;-6.90;99.90;;;;;;2077152;28;20042;-70
2022/12/18 05:14:58;;;;;;;50.78;38.00;;;-6.90;99.90;;;;;;2076279;28;20040;-70
2022/12/18 05:15:59;;;;;;;50.80;35.88;;;-6.90;99.90;;;;;;2076501;28;20120;-70
2022/12/18 05:17:00;;;;;;;48.15;35.47;;;-6.90;99.90;;;;;;2076054;28;20458;-70
2022/12/18 05:18:01;;;;;;;48.15;35.97;;;-6.90;99.90;;;;;;2076701;28;20068;-70
2022/12/18 05:19:02;;;;;;;47.08;34.58;;;-6.90;99.90;;;;;;2076142;28;20669;-70
2022/12/18 05:20:03;;;;;;;46.58;36.60;;;-6.90;99.90;;;;;;2074599;28;20438;-70
2022/12/18 05:21:03;;;;;;;48.38;36.28;;;-6.90;99.90;;;;;;2074903;28;20145;-70
2022/12/18 05:22:07;;;;;;;43.35;34.55;;;-6.90;99.90;;;;;;2076410;28;20095;-70
2022/12/18 05:23:07;;;;;;;47.22;34.88;;;-6.90;99.90;;;;;;2075649;28;20030;-70
2022/12/18 05:24:08;;;;;;;46.90;36.55;;;-6.90;99.90;;;;;;2082884;28;20025;-70
2022/12/18 05:25:08;;;;;;;46.67;34.30;;;-6.90;99.90;;;;;;2074034;28;20033;-70
2022/12/18 05:26:14;;;;;;;45.50;34.17;;;-6.90;99.90;;;;;;2074470;28;20732;-70
2022/12/18 05:27:15;;;;;;;48.05;33.55;;;-6.90;99.90;;;;;;2073902;28;20208;-70
2022/12/18 05:28:15;;;;;;;43.35;31.98;;;-6.90;99.90;;;;;;2074101;28;20083;-70
2022/12/18 05:29:16;;;;;;;43.53;33.85;;;-6.90;99.90;;;;;;2074880;28;20036;-70
2022/12/18 05:30:17;;;;;;;40.28;31.75;;;-6.90;99.90;;;;;;2075773;28;20030;-70